Time;durP1;ratioP1;P1;durP2;ratioP2;P2;SDS_P1;SDS_P2;PMS_P1;PMS_P2;Temp;Humidity;BMP_temperature;BMP_pressure;BME280_temperature;BME280_humidity;BME280_pressure;Samples;Min_cycle;Max_cycle;Signal;HPM_P1;HPM_P2
2023/07/01 00:02:00;;;;;;;1.33;1.23;;;16.50;99.90;;;;;;5073731;28;20174;-69
2023/07/01 00:04:27;;;;;;;2.23;1.63;;;16.50;99.90;;;;;;5073921;28;20215;-70
2023/07/01 00:06:53;;;;;;;1.27;1.17;;;16.50;99.90;;;;;;5073912;28;20197;-70
2023/07/01 00:09:19;;;;;;;1.13;1.13;;;16.50;99.90;;;;;;5073953;28;20896;-69
2023/07/01 00:11:45;;;;;;;1.50;1.33;;;16.50;99.90;;;;;;5073604;28;20414;-70
2023/07/01 00:14:10;;;;;;;3.33;1.47;;;16.50;99.90;;;;;;5073829;28;20180;-69
2023/07/01 00:16:36;;;;;;;1.20;1.10;;;16.50;99.90;;;;;;5073722;28;20277;-69
2023/07/01 00:19:01;;;;;;;1.60;1.47;;;16.40;99.90;;;;;;5073811;28;20194;-70
2023/07/01 00:21:27;;;;;;;2.27;1.80;;;16.40;99.90;;;;;;5073711;28;20177;-69
2023/07/01 00:23:53;;;;;;;1.33;1.23;;;16.30;99.90;;;;;;5073794;28;20210;-69
2023/07/01 00:26:18;;;;;;;0.93;0.93;;;16.30;99.90;;;;;;5073540;28;20278;-70
2023/07/01 00:28:44;;;;;;;3.07;1.90;;;16.00;99.90;;;;;;5073572;28;20181;-70
2023/07/01 00:31:10;;;;;;;4.77;4.43;;;16.20;99.90;;;;;;5073376;28;20169;-70
2023/07/01 00:33:35;;;;;;;1.17;1.17;;;16.20;99.90;;;;;;5073625;28;20177;-69
2023/07/01 00:36:01;;;;;;;2.00;1.90;;;16.20;99.90;;;;;;5073723;28;20177;-69
2023/07/01 00:38:26;;;;;;;1.10;1.10;;;16.20;99.90;;;;;;5073624;28;20173;-70
2023/07/01 00:40:52;;;;;;;1.53;1.50;;;16.20;99.90;;;;;;5073624;28;20642;-70
2023/07/01 00:43:17;;;;;;;1.53;1.47;;;16.10;99.90;;;;;;5073385;28;20260;-70
2023/07/01 00:45:43;;;;;;;3.07;2.97;;;16.20;99.90;;;;;;5073376;28;20566;-70
2023/07/01 00:48:32;;;;;;;0.80;0.80;;;16.20;99.90;;;;;;5073388;28;20177;-69
2023/07/01 00:50:58;;;;;;;2.07;1.57;;;16.20;99.90;;;;;;5073179;28;20185;-69
2023/07/01 00:53:24;;;;;;;1.60;0.93;;;16.20;99.90;;;;;;5073524;28;20518;-70
2023/07/01 00:55:49;;;;;;;2.10;1.40;;;16.20;99.90;;;;;;5073526;28;20256;-69
2023/07/01 00:58:15;;;;;;;2.90;1.90;;;16.20;99.90;;;;;;5073224;28;20408;-69
2023/07/01 01:00:43;;;;;;;1.33;1.07;;;16.20;99.90;;;;;;5073428;28;20220;-70
2023/07/01 01:03:32;;;;;;;2.60;2.50;;;16.10;99.90;;;;;;5074631;28;20218;-69
2023/07/01 01:06:13;;;;;;;1.90;1.83;;;16.10;99.90;;;;;;5077457;28;20489;-69
2023/07/01 01:08:52;;;;;;;2.67;2.10;;;15.90;99.90;;;;;;5077363;28;20483;-69
2023/07/01 01:11:19;;;;;;;1.53;1.47;;;16.10;99.90;;;;;;5077380;28;20429;-70
2023/07/01 01:13:46;;;;;;;3.83;3.53;;;16.00;99.90;;;;;;5077423;28;20503;-69
2023/07/01 01:16:13;;;;;;;1.93;1.83;;;16.00;99.90;;;;;;5077229;28;20954;-70
2023/07/01 01:18:42;;;;;;;1.20;1.20;;;15.80;99.90;;;;;;5077110;28;20464;-69
2023/07/01 01:21:09;;;;;;;1.70;1.60;;;15.90;99.90;;;;;;5076848;28;20493;-69
2023/07/01 01:23:56;;;;;;;1.77;1.70;;;15.90;99.90;;;;;;5077212;28;20462;-69
2023/07/01 01:26:26;;;;;;;1.20;1.10;;;15.80;99.90;;;;;;5076936;28;20458;-70
2023/07/01 01:28:52;;;;;;;0.80;0.80;;;15.80;99.90;;;;;;5076897;28;20427;-69
2023/07/01 01:31:20;;;;;;;1.40;1.23;;;15.80;99.90;;;;;;5076673;28;20431;-69
2023/07/01 01:33:46;;;;;;;1.83;1.37;;;15.80;99.90;;;;;;5076719;28;20411;-70
2023/07/01 01:36:40;;;;;;;0.53;0.50;;;15.80;99.90;;;;;;5076948;28;20414;-69
2023/07/01 01:39:08;;;;;;;1.97;1.87;;;15.80;99.90;;;;;;5076819;28;20432;-70
2023/07/01 01:41:50;;;;;;;2.70;1.73;;;15.80;99.90;;;;;;5076433;28;20490;-69
2023/07/01 01:44:27;;;;;;;2.27;1.67;;;15.80;99.90;;;;;;5076505;28;20408;-70
2023/07/01 01:46:54;;;;;;;1.90;1.73;;;15.80;99.90;;;;;;5076658;28;20455;-70
2023/07/01 01:49:20;;;;;;;1.10;1.10;;;15.80;99.90;;;;;;5076459;28;20435;-69
2023/07/01 01:51:46;;;;;;;1.30;1.20;;;15.80;99.90;;;;;;5074914;28;20947;-69
2023/07/01 01:54:14;;;;;;;1.27;1.13;;;15.80;99.90;;;;;;5076615;28;20487;-69
2023/07/01 01:56:41;;;;;;;3.60;1.63;;;15.80;99.90;;;;;;5076755;28;20430;-69
2023/07/01 01:59:08;;;;;;;1.40;1.30;;;15.80;99.90;;;;;;5076122;28;20442;-70
2023/07/01 02:01:36;;;;;;;2.17;1.73;;;15.80;99.90;;;;;;5076295;28;20429;-69
2023/07/01 02:04:02;;;;;;;6.23;2.50;;;15.80;99.90;;;;;;5076181;28;20465;-70
2023/07/01 02:06:28;;;;;;;1.73;1.63;;;15.80;99.90;;;;;;5076046;28;20498;-70
2023/07/01 02:08:53;;;;;;;0.87;0.87;;;15.70;99.90;;;;;;5076263;28;20453;-70
2023/07/01 02:11:19;;;;;;;1.77;1.67;;;15.80;99.90;;;;;;5076059;28;20255;-69
2023/07/01 02:13:45;;;;;;;1.70;1.60;;;15.80;99.90;;;;;;5075479;28;20166;-69
2023/07/01 02:16:10;;;;;;;0.90;0.90;;;15.80;99.90;;;;;;5076063;28;20648;-69
2023/07/01 02:18:36;;;;;;;1.67;1.57;;;15.70;99.90;;;;;;5076050;28;20266;-69
2023/07/01 02:21:04;;;;;;;2.20;2.10;;;15.90;99.90;;;;;;5075762;28;20257;-70
2023/07/01 02:23:29;;;;;;;1.97;1.10;;;15.80;99.90;;;;;;5076000;28;20165;-69
2023/07/01 02:25:55;;;;;;;1.50;1.40;;;15.80;99.90;;;;;;5075868;28;20474;-70
2023/07/01 02:28:20;;;;;;;1.47;1.37;;;15.80;99.90;;;;;;5075932;28;20169;-70
2023/07/01 02:30:46;;;;;;;2.30;2.20;;;15.80;99.90;;;;;;5075743;28;20246;-69
2023/07/01 02:33:12;;;;;;;2.57;1.07;;;15.80;99.90;;;;;;5075693;28;20648;-70
2023/07/01 02:35:37;;;;;;;1.47;1.47;;;15.80;99.90;;;;;;5076055;28;20174;-69
2023/07/01 02:38:03;;;;;;;0.80;0.80;;;15.80;99.90;;;;;;5075556;28;20177;-70
2023/07/01 02:40:28;;;;;;;1.63;1.53;;;15.80;99.90;;;;;;5075520;28;20265;-69
2023/07/01 02:42:54;;;;;;;1.33;1.33;;;15.80;99.90;;;;;;5075386;28;20637;-69
2023/07/01 02:45:20;;;;;;;10.10;1.03;;;15.80;99.90;;;;;;5075581;28;20552;-69
2023/07/01 02:47:45;;;;;;;1.73;1.63;;;15.80;99.90;;;;;;5075515;28;20184;-69
2023/07/01 02:50:11;;;;;;;1.87;1.77;;;15.70;99.90;;;;;;5075224;28;20209;-69
2023/07/01 02:52:37;;;;;;;0.73;0.73;;;15.60;99.90;;;;;;5075077;28;20172;-69
2023/07/01 02:55:02;;;;;;;1.43;1.33;;;15.60;99.90;;;;;;5075440;28;20204;-70
2023/07/01 02:57:28;;;;;;;1.40;1.20;;;15.50;99.90;;;;;;5075178;28;20621;-69
2023/07/01 02:59:56;;;;;;;0.93;0.93;;;15.50;99.90;;;;;;5075059;28;20190;-69
2023/07/01 03:02:21;;;;;;;2.50;2.30;;;15.50;99.90;;;;;;5074866;28;20272;-70
2023/07/01 03:04:47;;;;;;;2.60;1.40;;;15.60;99.90;;;;;;5075118;28;20434;-70
2023/07/01 03:07:12;;;;;;;1.13;1.13;;;15.60;99.90;;;;;;5075123;28;20483;-69
2023/07/01 03:09:38;;;;;;;1.03;1.03;;;15.70;99.90;;;;;;5075061;28;20190;-69
2023/07/01 03:12:04;;;;;;;0.87;0.87;;;15.80;99.90;;;;;;5074775;28;20706;-70
2023/07/01 03:14:30;;;;;;;1.80;1.70;;;15.80;99.90;;;;;;5074876;28;20177;-70
2023/07/01 03:16:55;;;;;;;3.63;1.80;;;15.70;99.90;;;;;;5073679;28;20422;-69
2023/07/01 03:19:23;;;;;;;1.23;0.90;;;15.70;99.90;;;;;;5074727;28;20271;-69
2023/07/01 03:21:48;;;;;;;4.63;1.43;;;15.60;99.90;;;;;;5074495;28;20525;-69
2023/07/01 03:24:14;;;;;;;1.27;1.17;;;15.60;99.90;;;;;;5074597;28;20424;-69
2023/07/01 03:26:40;;;;;;;1.93;1.00;;;15.60;99.90;;;;;;5073544;28;20197;-69
2023/07/01 03:29:05;;;;;;;1.70;1.60;;;15.70;99.90;;;;;;5074552;28;20567;-69
2023/07/01 03:31:32;;;;;;;0.70;0.70;;;15.70;99.90;;;;;;5074429;28;20686;-70
2023/07/01 03:33:58;;;;;;;1.00;0.90;;;15.70;99.90;;;;;;5074482;28;20633;-70
2023/07/01 03:36:24;;;;;;;1.57;1.47;;;15.80;99.90;;;;;;5072442;28;20443;-69
2023/07/01 03:38:50;;;;;;;1.73;1.63;;;16.00;99.90;;;;;;5074134;28;20181;-69
2023/07/01 03:41:16;;;;;;;2.43;1.67;;;15.80;99.90;;;;;;5074200;28;20177;-69
2023/07/01 03:43:42;;;;;;;3.50;1.80;;;15.80;99.90;;;;;;5073189;28;20434;-70
2023/07/01 03:46:07;;;;;;;1.77;1.67;;;15.80;99.90;;;;;;5074338;28;20199;-70
2023/07/01 03:48:34;;;;;;;2.53;2.40;;;;;;;;;;5074472;28;20246;-69
2023/07/01 03:51:00;;;;;;;1.27;1.27;;;15.90;99.90;;;;;;5073986;28;20207;-70
2023/07/01 03:53:25;;;;;;;6.27;1.80;;;15.90;99.90;;;;;;5074187;28;20412;-69
2023/07/01 03:55:51;;;;;;;2.73;2.07;;;15.80;99.90;;;;;;5074236;28;20173;-69
2023/07/01 03:58:21;;;;;;;2.20;1.10;;;15.90;99.90;;;;;;5074254;28;20169;-70
2023/07/01 04:00:53;;;;;;;1.63;1.30;;;15.80;99.90;;;;;;5074076;28;20453;-70
2023/07/01 04:03:23;;;;;;;2.83;2.63;;;15.70;99.90;;;;;;5073751;28;20492;-70
2023/07/01 04:05:52;;;;;;;1.90;1.23;;;15.70;99.90;;;;;;5073856;28;20449;-70
2023/07/01 04:08:17;;;;;;;2.10;2.00;;;15.70;99.90;;;;;;5074185;28;20407;-70
2023/07/01 04:10:43;;;;;;;1.17;1.13;;;15.60;99.90;;;;;;5073780;28;20439;-69
2023/07/01 04:13:10;;;;;;;1.07;1.07;;;15.70;99.90;;;;;;5074062;28;20180;-69
2023/07/01 04:15:35;;;;;;;2.40;2.20;;;15.70;99.90;;;;;;5073810;28;20192;-69
2023/07/01 04:18:01;;;;;;;2.73;2.27;;;15.70;99.90;;;;;;5073657;28;20437;-68
2023/07/01 04:20:27;;;;;;;4.30;2.70;;;15.70;99.90;;;;;;5073560;28;20217;-69
2023/07/01 04:22:52;;;;;;;0.70;0.70;;;15.70;99.90;;;;;;5072287;28;20179;-69
2023/07/01 04:25:18;;;;;;;3.03;2.37;;;15.70;99.90;;;;;;5072969;28;20553;-69
2023/07/01 04:27:44;;;;;;;1.67;1.50;;;15.80;99.90;;;;;;5073954;28;20180;-69
2023/07/01 04:30:12;;;;;;;1.53;1.43;;;15.80;99.90;;;;;;5072320;28;20225;-69
2023/07/01 04:32:37;;;;;;;1.93;1.83;;;15.70;99.90;;;;;;5073582;28;20184;-70
2023/07/01 04:35:03;;;;;;;2.70;2.50;;;15.80;99.90;;;;;;5074119;28;20400;-70
2023/07/01 04:37:29;;;;;;;1.43;1.33;;;15.80;99.90;;;;;;5073733;28;20207;-71
2023/07/01 04:39:54;;;;;;;1.43;1.43;;;15.80;99.90;;;;;;5073532;28;20915;-67
2023/07/01 04:42:20;;;;;;;0.70;0.70;;;15.90;99.90;;;;;;5073658;28;20202;-70
2023/07/01 04:44:53;;;;;;;2.53;2.43;;;;;;;;;;5073540;28;20197;-69
2023/07/01 04:47:21;;;;;;;0.90;0.90;;;16.20;99.90;;;;;;5073607;28;20195;-69
2023/07/01 04:49:47;;;;;;;0.67;0.67;;;16.10;99.90;;;;;;5073187;28;20446;-69
2023/07/01 04:52:15;;;;;;;1.00;1.00;;;16.10;99.90;;;;;;5073285;28;20433;-69
2023/07/01 04:54:40;;;;;;;1.47;1.00;;;16.10;99.90;;;;;;5073933;28;20263;-69
2023/07/01 04:57:06;;;;;;;3.00;1.37;;;16.10;99.90;;;;;;5073285;28;20815;-69
2023/07/01 04:59:31;;;;;;;1.40;1.00;;;16.10;99.90;;;;;;5073225;28;20270;-69
2023/07/01 05:01:57;;;;;;;1.60;1.03;;;16.10;99.90;;;;;;5073224;28;20169;-70
2023/07/01 05:04:23;;;;;;;1.90;1.30;;;16.20;99.90;;;;;;5073726;28;20252;-70
2023/07/01 05:06:48;;;;;;;2.27;2.10;;;16.10;99.90;;;;;;5073230;28;20553;-69
2023/07/01 05:09:14;;;;;;;0.70;0.70;;;16.10;99.90;;;;;;5073579;28;20190;-70
2023/07/01 05:11:39;;;;;;;3.17;2.43;;;16.20;99.90;;;;;;5073067;28;20166;-70
2023/07/01 05:14:05;;;;;;;1.30;1.20;;;;;;;;;;5073216;28;20181;-69
2023/07/01 05:16:31;;;;;;;2.70;2.50;;;16.30;99.90;;;;;;5073350;28;20170;-69
2023/07/01 05:18:58;;;;;;;1.40;1.40;;;16.40;99.90;;;;;;5073419;28;20784;-69
2023/07/01 05:21:24;;;;;;;1.17;1.10;;;16.60;99.90;;;;;;5073047;28;20900;-69
2023/07/01 05:23:50;;;;;;;0.80;0.80;;;16.60;99.90;;;;;;5073617;28;20497;-69
2023/07/01 05:26:16;;;;;;;2.70;2.50;;;16.60;99.90;;;;;;5072875;28;20497;-69
2023/07/01 05:28:41;;;;;;;1.47;1.27;;;16.40;99.90;;;;;;5073009;28;20290;-70
2023/07/01 05:31:07;;;;;;;1.20;1.10;;;16.60;99.90;;;;;;5073051;28;20612;-69
2023/07/01 05:33:32;;;;;;;1.17;0.83;;;16.60;99.90;;;;;;5073285;28;20196;-69
2023/07/01 05:35:58;;;;;;;1.67;1.20;;;16.70;99.90;;;;;;5073235;28;20264;-69
2023/07/01 05:38:24;;;;;;;0.77;0.60;;;16.80;99.90;;;;;;5073473;28;20182;-69
2023/07/01 05:40:49;;;;;;;0.80;0.80;;;16.80;99.90;;;;;;5072654;28;20193;-70
2023/07/01 05:43:15;;;;;;;1.57;1.20;;;17.00;99.90;;;;;;5071369;28;20181;-70
2023/07/01 05:45:41;;;;;;;0.50;0.50;;;17.10;99.90;;;;;;5072714;28;20199;-69
2023/07/01 05:48:06;;;;;;;1.80;1.70;;;17.20;99.90;;;;;;5072632;28;20413;-70
2023/07/01 05:50:32;;;;;;;1.57;1.47;;;17.30;99.90;;;;;;5075992;28;20234;-69
2023/07/01 05:52:58;;;;;;;0.60;0.60;;;17.40;98.60;;;;;;5075428;28;20218;-70
2023/07/01 05:55:23;;;;;;;1.60;1.23;;;17.50;99.20;;;;;;5075675;28;20173;-69
2023/07/01 05:57:50;;;;;;;0.60;0.53;;;17.60;98.50;;;;;;5076251;28;20183;-69
2023/07/01 06:00:16;;;;;;;1.30;1.10;;;17.70;98.20;;;;;;5073754;28;20293;-70
2023/07/01 06:02:42;;;;;;;0.60;0.60;;;17.80;97.50;;;;;;5076015;28;20441;-69
2023/07/01 06:05:08;;;;;;;1.10;1.10;;;18.00;98.10;;;;;;5076545;28;20852;-70
2023/07/01 06:07:34;;;;;;;0.87;0.50;;;18.10;96.70;;;;;;5076201;28;20411;-70
2023/07/01 06:09:59;;;;;;;1.37;1.27;;;18.30;97.20;;;;;;5076255;28;20427;-69
2023/07/01 06:12:25;;;;;;;1.07;0.90;;;18.60;96.30;;;;;;5076223;28;20172;-69
2023/07/01 06:14:51;;;;;;;1.13;0.90;;;19.20;98.00;;;;;;5074847;28;20173;-70
2023/07/01 06:17:17;;;;;;;0.57;0.57;;;20.00;95.90;;;;;;5076404;28;20410;-69
2023/07/01 06:19:42;;;;;;;2.83;1.03;;;20.80;95.50;;;;;;5075993;28;20201;-70
2023/07/01 06:22:08;;;;;;;1.50;0.53;;;21.50;92.60;;;;;;5075743;28;20656;-70
2023/07/01 06:24:34;;;;;;;0.50;0.50;;;22.00;90.90;;;;;;5076014;28;20257;-70
2023/07/01 06:26:59;;;;;;;0.57;0.57;;;22.60;89.40;;;;;;5075798;28;20205;-70
2023/07/01 06:29:25;;;;;;;0.40;0.40;;;23.50;87.40;;;;;;5075649;28;20194;-70
2023/07/01 06:31:50;;;;;;;0.50;0.50;;;24.70;80.60;;;;;;5075636;28;20173;-70
2023/07/01 06:34:17;;;;;;;0.50;0.50;;;25.90;75.30;;;;;;5076258;28;20174;-70
2023/07/01 06:36:43;;;;;;;4.10;0.77;;;26.60;70.10;;;;;;5075757;28;20622;-70
2023/07/01 06:39:09;;;;;;;1.30;0.50;;;27.40;64.10;;;;;;5073947;28;20825;-70
2023/07/01 06:41:35;;;;;;;1.70;0.87;;;27.90;61.10;;;;;;5075459;28;20412;-71
2023/07/01 06:44:00;;;;;;;0.50;0.50;;;27.30;58.10;;;;;;5075213;28;20407;-70
2023/07/01 06:46:27;;;;;;;0.70;0.70;;;27.30;61.00;;;;;;5075236;28;20207;-70
2023/07/01 06:48:52;;;;;;;0.97;0.87;;;27.80;70.90;;;;;;5075438;28;20252;-70
2023/07/01 06:51:18;;;;;;;0.60;0.60;;;27.80;57.20;;;;;;5074988;28;20511;-70
2023/07/01 06:53:44;;;;;;;0.80;0.80;;;27.40;55.50;;;;;;5075695;28;20181;-70
2023/07/01 06:56:09;;;;;;;1.00;0.70;;;26.70;60.50;;;;;;5075213;28;20216;-70
2023/07/01 06:58:35;;;;;;;0.50;0.50;;;27.10;75.70;;;;;;5075109;28;20228;-70
2023/07/01 07:01:01;;;;;;;1.23;0.60;;;27.00;63.70;;;;;;5074812;28;20542;-70
2023/07/01 07:03:26;;;;;;;0.40;0.40;;;27.10;58.00;;;;;;5074997;28;20177;-70
2023/07/01 07:05:54;;;;;;;0.70;0.70;;;26.80;59.10;;;;;;5075018;28;20203;-70
2023/07/01 07:08:20;;;;;;;0.40;0.40;;;26.60;60.80;;;;;;5075153;28;20170;-70
2023/07/01 07:10:46;;;;;;;0.73;0.50;;;26.70;61.60;;;;;;5074808;28;20434;-70
2023/07/01 07:13:12;;;;;;;0.40;0.40;;;26.20;59.00;;;;;;5074694;28;20201;-70
2023/07/01 07:15:38;;;;;;;1.33;1.23;;;26.00;61.20;;;;;;5074954;28;20426;-70
2023/07/01 07:18:07;;;;;;;0.40;0.40;;;25.80;61.00;;;;;;5073445;28;20166;-70
2023/07/01 07:20:35;;;;;;;0.60;0.60;;;25.40;60.90;;;;;;5073767;28;20431;-70
2023/07/01 07:23:01;;;;;;;0.50;0.50;;;25.50;58.40;;;;;;5071928;28;20409;-70
2023/07/01 07:25:27;;;;;;;0.40;0.40;;;25.30;58.50;;;;;;5074190;28;20500;-70
2023/07/01 07:27:53;;;;;;;1.00;0.90;;;25.10;61.40;;;;;;5075018;28;20379;-70
2023/07/01 07:30:18;;;;;;;0.50;0.40;;;24.60;62.00;;;;;;5073054;28;20270;-70
2023/07/01 07:32:44;;;;;;;0.53;0.53;;;24.50;63.00;;;;;;5074316;28;20194;-70
2023/07/01 07:35:10;;;;;;;0.97;0.90;;;24.70;64.70;;;;;;5074863;28;20614;-71
2023/07/01 07:37:36;;;;;;;0.60;0.60;;;24.80;65.80;;;;;;5073301;28;20182;-70
2023/07/01 07:40:05;;;;;;;1.70;0.60;;;24.40;62.60;;;;;;5074550;28;20189;-70
2023/07/01 07:42:31;;;;;;;0.60;0.60;;;24.60;69.00;;;;;;5073923;28;20465;-70
2023/07/01 07:44:57;;;;;;;0.70;0.70;;;24.90;68.00;;;;;;5073201;28;20933;-70
2023/07/01 07:47:23;;;;;;;0.63;0.63;;;25.00;59.50;;;;;;5074346;28;20403;-70
2023/07/01 07:49:49;;;;;;;0.97;0.83;;;25.30;63.30;;;;;;5073944;28;20202;-70
2023/07/01 07:52:14;;;;;;;0.93;0.57;;;25.20;58.10;;;;;;5073348;28;20419;-70
2023/07/01 07:54:45;;;;;;;0.40;0.40;;;25.50;57.40;;;;;;5073958;28;20259;-71
2023/07/01 07:57:12;;;;;;;0.40;0.40;;;26.70;59.20;;;;;;5072842;28;20404;-71
2023/07/01 07:59:43;;;;;;;0.70;0.60;;;28.00;56.50;;;;;;5073223;28;20515;-71
2023/07/01 08:02:10;;;;;;;0.90;0.80;;;28.90;56.40;;;;;;5073691;28;20407;-71
2023/07/01 08:04:36;;;;;;;1.17;0.50;;;29.30;51.20;;;;;;5072411;28;20403;-71
2023/07/01 08:07:02;;;;;;;0.53;0.50;;;30.10;52.60;;;;;;5073834;28;20456;-71
2023/07/01 08:09:28;;;;;;;0.50;0.50;;;30.40;51.70;;;;;;5072807;28;20435;-71
2023/07/01 08:11:58;;;;;;;1.70;0.50;;;30.80;50.90;;;;;;5071830;28;20162;-71
2023/07/01 08:14:25;;;;;;;0.60;0.60;;;31.50;46.70;;;;;;5072517;28;20515;-71
2023/07/01 08:16:50;;;;;;;0.70;0.70;;;32.10;49.60;;;;;;5070496;28;20423;-71
2023/07/01 08:19:16;;;;;;;0.60;0.60;;;32.50;46.20;;;;;;5073034;28;20931;-71
2023/07/01 08:21:42;;;;;;;0.90;0.50;;;33.40;45.50;;;;;;5073323;28;20253;-71
2023/07/01 08:24:08;;;;;;;1.43;0.80;;;33.90;43.60;;;;;;5070927;28;20611;-71
2023/07/01 08:26:34;;;;;;;0.50;0.50;;;33.90;42.50;;;;;;5073475;28;20242;-71
2023/07/01 08:29:00;;;;;;;0.60;0.53;;;33.30;42.20;;;;;;5073601;28;20420;-71
2023/07/01 08:31:31;;;;;;;1.00;1.00;;;33.20;43.90;;;;;;5073195;28;20660;-72
2023/07/01 08:33:57;;;;;;;0.90;0.60;;;33.50;42.20;;;;;;5073403;28;20445;-71
2023/07/01 08:36:23;;;;;;;0.70;0.70;;;33.80;40.80;;;;;;5073668;28;20493;-71
2023/07/01 08:38:48;;;;;;;0.50;0.50;;;33.40;50.70;;;;;;5073289;28;20892;-71
2023/07/01 08:41:16;;;;;;;1.17;0.60;;;33.50;42.00;;;;;;5072035;28;20524;-73
2023/07/01 08:43:44;;;;;;;0.40;0.40;;;33.30;40.80;;;;;;5073681;28;20170;-73
2023/07/01 08:46:12;;;;;;;0.63;0.43;;;33.00;41.10;;;;;;5073416;28;20447;-73
2023/07/01 08:48:38;;;;;;;0.47;0.47;;;33.30;42.30;;;;;;5073432;28;20517;-72
2023/07/01 08:51:30;;;;;;;0.60;0.60;;;33.70;41.60;;;;;;5073057;28;20432;-71
2023/07/01 08:53:58;;;;;;;0.63;0.63;;;33.10;39.70;;;;;;5073594;28;20541;-72
2023/07/01 08:56:24;;;;;;;0.90;0.70;;;33.60;41.80;;;;;;5073823;28;20395;-72
2023/07/01 08:58:50;;;;;;;0.70;0.53;;;32.80;48.70;;;;;;5073270;28;20416;-73
2023/07/01 09:01:17;;;;;;;0.50;0.50;;;32.90;40.50;;;;;;5073306;28;20408;-71
2023/07/01 09:03:46;;;;;;;0.50;0.47;;;32.50;39.40;;;;;;5071169;28;20403;-71
2023/07/01 09:06:11;;;;;;;0.60;0.60;;;31.30;43.10;;;;;;5070987;28;20447;-73
2023/07/01 09:08:40;;;;;;;1.13;0.57;;;30.00;50.50;;;;;;5072466;28;20922;-72
2023/07/01 09:11:16;;;;;;;0.73;0.60;;;29.70;47.10;;;;;;5071847;28;20516;-72
2023/07/01 09:13:42;;;;;;;0.53;0.53;;;29.50;43.00;;;;;;5072879;28;20449;-72
2023/07/01 09:16:08;;;;;;;0.73;0.60;;;29.40;43.40;;;;;;5071632;28;20469;-72
2023/07/01 09:18:34;;;;;;;0.80;0.80;;;28.90;45.80;;;;;;5073192;28;20407;-71
2023/07/01 09:21:01;;;;;;;0.73;0.70;;;27.50;45.60;;;;;;5072882;28;20412;-73
2023/07/01 09:23:28;;;;;;;0.60;0.60;;;26.50;47.20;;;;;;5073382;28;20412;-72
2023/07/01 09:26:11;;;;;;;2.40;0.57;;;26.10;49.10;;;;;;5075347;28;21005;-72
2023/07/01 09:28:41;;;;;;;0.40;0.40;;;26.80;58.10;;;;;;5077047;28;20452;-72
2023/07/01 09:31:09;;;;;;;1.00;0.90;;;26.80;50.00;;;;;;5076969;28;20400;-71
2023/07/01 09:33:35;;;;;;;0.60;0.60;;;27.00;49.00;;;;;;5077307;28;20400;-71
2023/07/01 09:36:02;;;;;;;4.00;0.90;;;26.90;49.00;;;;;;5077139;28;20424;-71
2023/07/01 09:38:28;;;;;;;0.60;0.60;;;26.30;49.00;;;;;;5075060;28;20446;-71
2023/07/01 09:40:54;;;;;;;1.83;1.73;;;25.60;51.30;;;;;;5074934;28;20419;-71
2023/07/01 09:43:20;;;;;;;0.83;0.80;;;25.00;50.20;;;;;;5074893;28;20393;-71
2023/07/01 09:45:53;;;;;;;0.53;0.53;;;25.00;53.00;;;;;;5075747;28;20204;-71
2023/07/01 09:48:21;;;;;;;1.03;0.90;;;25.50;51.80;;;;;;5076290;28;20170;-71
2023/07/01 09:50:48;;;;;;;0.60;0.60;;;26.20;50.90;;;;;;5076339;28;20447;-71
2023/07/01 09:53:26;;;;;;;0.50;0.50;;;26.80;50.00;;;;;;5076021;28;20403;-71
2023/07/01 09:55:52;;;;;;;0.87;0.87;;;27.50;48.10;;;;;;5076292;28;20405;-71
2023/07/01 09:58:19;;;;;;;0.83;0.83;;;28.50;52.00;;;;;;5076259;28;20502;-71
2023/07/01 10:00:45;;;;;;;0.53;0.53;;;28.90;48.40;;;;;;5076000;28;20281;-71
2023/07/01 10:03:11;;;;;;;1.10;1.10;;;28.50;47.60;;;;;;5074802;28;20399;-71
2023/07/01 10:05:37;;;;;;;1.40;1.30;;;27.90;46.80;;;;;;5074852;28;20536;-71
2023/07/01 10:08:05;;;;;;;0.40;0.40;;;27.40;49.90;;;;;;5075960;28;20169;-72
2023/07/01 10:10:31;;;;;;;0.60;0.50;;;27.30;48.10;;;;;;5076348;28;20431;-72
2023/07/01 10:13:01;;;;;;;0.73;0.70;;;27.00;49.20;;;;;;5075500;28;20400;-72
2023/07/01 10:15:31;;;;;;;1.00;0.60;;;27.00;53.00;;;;;;5076631;28;20173;-72
2023/07/01 10:17:57;;;;;;;0.40;0.40;;;27.20;54.20;;;;;;5076450;28;20502;-73
2023/07/01 10:20:33;;;;;;;0.70;0.70;;;26.60;50.70;;;;;;5075872;28;20424;-73
2023/07/01 10:23:00;;;;;;;0.77;0.77;;;26.20;52.80;;;;;;5075657;28;20929;-72
2023/07/01 10:25:30;;;;;;;1.83;0.80;;;25.60;50.60;;;;;;5075751;28;20475;-72
2023/07/01 10:28:01;;;;;;;0.67;0.67;;;25.50;53.90;;;;;;5076007;28;20905;-72
2023/07/01 10:30:42;;;;;;;2.77;1.10;;;25.80;52.80;;;;;;5075760;28;20398;-72
2023/07/01 10:33:39;;;;;;;0.70;0.60;;;25.60;52.60;;;;;;5075557;28;20400;-72
2023/07/01 10:36:04;;;;;;;0.80;0.70;;;25.60;53.40;;;;;;5075084;28;20486;-72
2023/07/01 10:38:31;;;;;;;0.97;0.70;;;25.80;55.30;;;;;;5074806;28;20491;-71
2023/07/01 10:40:57;;;;;;;0.67;0.53;;;25.80;52.30;;;;;;5075326;28;20186;-72
2023/07/01 10:43:26;;;;;;;0.83;0.83;;;25.70;54.10;;;;;;5075395;28;20445;-72
2023/07/01 10:46:11;;;;;;;0.83;0.83;;;25.70;53.80;;;;;;5075535;28;20500;-72
2023/07/01 10:48:38;;;;;;;0.63;0.50;;;24.90;66.60;;;;;;5075336;28;20402;-71
2023/07/01 10:51:12;;;;;;;0.73;0.60;;;25.20;53.90;;;;;;5074982;28;20430;-72
2023/07/01 10:54:00;;;;;;;1.10;0.83;;;25.30;52.30;;;;;;5075261;28;20375;-71
2023/07/01 10:56:35;;;;;;;0.47;0.47;;;25.20;53.20;;;;;;5075467;28;20520;-71
2023/07/01 10:59:22;;;;;;;0.80;0.60;;;25.10;55.40;;;;;;5075242;28;20506;-71
2023/07/01 11:01:56;;;;;;;1.43;0.97;;;25.00;55.20;;;;;;5074921;28;20857;-72
2023/07/01 11:04:22;;;;;;;0.53;0.53;;;25.10;53.90;;;;;;5075312;28;20403;-72
2023/07/01 11:06:56;;;;;;;1.70;0.70;;;25.40;53.20;;;;;;5074990;28;20422;-72
2023/07/01 11:09:35;;;;;;;0.50;0.50;;;25.40;53.20;;;;;;5074896;28;20454;-72
2023/07/01 11:12:03;;;;;;;0.60;0.50;;;25.20;55.30;;;;;;5074873;28;20775;-72
2023/07/01 11:14:32;;;;;;;0.77;0.60;;;25.30;53.90;;;;;;5074856;28;20374;-72
2023/07/01 11:17:05;;;;;;;0.77;0.70;;;25.30;54.30;;;;;;5074782;28;20399;-71
2023/07/01 11:19:31;;;;;;;0.50;0.50;;;25.40;56.20;;;;;;5074848;28;20450;-72
2023/07/01 11:21:57;;;;;;;1.00;1.00;;;25.50;57.30;;;;;;5074657;28;20871;-72
2023/07/01 11:24:26;;;;;;;0.60;0.60;;;25.20;55.80;;;;;;5074637;28;20177;-72
2023/07/01 11:26:58;;;;;;;0.80;0.80;;;25.00;54.90;;;;;;5074498;28;20627;-72
2023/07/01 11:29:24;;;;;;;1.10;0.80;;;25.00;55.10;;;;;;5074765;28;20514;-72
2023/07/01 11:32:12;;;;;;;0.87;0.87;;;24.60;56.40;;;;;;5074491;28;20464;-72
2023/07/01 11:34:39;;;;;;;0.40;0.40;;;24.60;57.90;;;;;;5074610;28;20533;-72
2023/07/01 11:37:05;;;;;;;0.50;0.40;;;24.80;56.70;;;;;;5074600;28;20387;-72
2023/07/01 11:39:31;;;;;;;0.60;0.60;;;24.70;54.50;;;;;;5074483;28;20402;-72
2023/07/01 11:42:01;;;;;;;0.40;0.40;;;24.50;56.00;;;;;;5074188;28;20454;-71
2023/07/01 11:44:28;;;;;;;1.03;0.83;;;24.30;56.30;;;;;;5074499;28;20166;-72
2023/07/01 11:46:55;;;;;;;0.50;0.50;;;23.90;61.40;;;;;;5073336;28;20801;-72
2023/07/01 11:49:21;;;;;;;0.80;0.70;;;23.80;58.10;;;;;;5074074;28;20498;-71
2023/07/01 11:51:54;;;;;;;0.67;0.63;;;23.80;56.40;;;;;;5073844;28;20451;-72
2023/07/01 11:54:22;;;;;;;1.10;1.00;;;24.00;59.80;;;;;;5074126;28;20168;-72
2023/07/01 11:56:50;;;;;;;0.80;0.50;;;24.20;58.70;;;;;;5072892;28;20431;-71
2023/07/01 11:59:33;;;;;;;0.50;0.50;;;24.10;56.60;;;;;;5074273;28;20452;-71
2023/07/01 12:02:00;;;;;;;0.67;0.67;;;23.80;57.10;;;;;;5073972;28;20430;-71
2023/07/01 12:04:27;;;;;;;1.43;0.87;;;23.70;56.90;;;;;;5074082;28;20727;-72
2023/07/01 12:07:09;;;;;;;0.90;0.90;;;23.60;59.40;;;;;;5074237;28;20447;-72
2023/07/01 12:09:37;;;;;;;0.50;0.50;;;23.30;57.70;;;;;;5073957;28;20438;-71
2023/07/01 12:12:03;;;;;;;1.00;1.00;;;23.10;59.60;;;;;;5073604;28;20449;-71
2023/07/01 12:14:29;;;;;;;0.70;0.70;;;22.90;60.70;;;;;;5073802;28;20783;-71
2023/07/01 12:16:55;;;;;;;1.10;1.00;;;23.20;60.80;;;;;;5073801;28;20400;-72
2023/07/01 12:19:22;;;;;;;0.77;0.70;;;23.50;62.70;;;;;;5073880;28;20208;-71
2023/07/01 12:21:50;;;;;;;0.67;0.67;;;23.70;58.90;;;;;;5073595;28;20775;-71
2023/07/01 12:24:21;;;;;;;1.63;0.70;;;23.70;58.80;;;;;;5074037;28;20414;-71
2023/07/01 12:26:48;;;;;;;0.67;0.67;;;23.80;58.30;;;;;;5074180;28;20538;-71
2023/07/01 12:29:14;;;;;;;0.60;0.60;;;23.60;58.30;;;;;;5073621;28;20510;-72
2023/07/01 12:31:40;;;;;;;0.77;0.70;;;23.50;58.60;;;;;;5073409;28;20472;-71
2023/07/01 12:34:06;;;;;;;0.73;0.73;;;23.40;58.50;;;;;;5073587;28;20866;-72
2023/07/01 12:36:32;;;;;;;0.80;0.73;;;23.40;60.00;;;;;;5073537;28;20174;-72
2023/07/01 12:38:58;;;;;;;0.53;0.53;;;23.70;61.80;;;;;;5074047;28;20665;-72
2023/07/01 12:41:28;;;;;;;1.20;1.10;;;24.00;58.90;;;;;;5073777;28;20404;-71
2023/07/01 12:43:54;;;;;;;0.53;0.53;;;24.20;59.80;;;;;;5073738;28;20858;-72
2023/07/01 12:46:20;;;;;;;0.50;0.50;;;24.30;59.20;;;;;;5073467;28;20447;-70
2023/07/01 12:48:45;;;;;;;0.50;0.50;;;24.10;69.90;;;;;;5073556;28;20673;-72
2023/07/01 12:51:11;;;;;;;0.40;0.40;;;24.00;62.10;;;;;;5073329;28;20181;-72